Shoshone, California Weather observations

Data are for observation ending at time listed.
 Day   Time    Ave.   Ave.  Ave.  Vector   Max.   Stn.    Total    Solar   Ave.  
  of    of     Air    Rel.  Wind   Wind    Wind   Baro.  Precip.   Rad.    Soil  
Year   Day     Temp.  Hum.  Speed  Dir.    Gust   Pres.                    Temp. 
2016   (PST)    F      %     mph   deg.    mph     mb.     in.     W/m2     F   
------------------------------------------------------------------------------
 144    8:00   67.4    28    7.2   160     18.7    963     0.00     552    99999.0
 144    9:00   68.8    27    9.0   160     20.6    963     0.00     739    99999.0
 144   10:00   71.5    24    8.3   163     18.3    963     0.00     897    99999.0
 144   11:00   74.9    20    6.1   169     16.9    963     0.00     996    99999.0
 144   12:00   77.4    17    5.4   162     14.8    962     0.00    1038    99999.0
 144   13:00   79.9    14    5.2   163     16.8    961     0.00    1023    99999.0
 144   14:00   81.9    13    5.7   167     18.3    960     0.00     947    99999.0
 144   15:00   83.4    12    4.7   168     14.9    960     0.00     812    99999.0
 144   16:00   83.6    11    6.5   180     20.0    959     0.00     636    99999.0
 144   17:00   83.5    11    8.8   183     20.0    958     0.00     428    99999.0
 144   18:00   82.3    14    9.1   196     21.4    958     0.00     211    99999.0
 144   19:00   79.0    18    9.8   223     22.1    958     0.00      36    99999.0
 144   20:00   75.7    22    7.1   190     19.1    958     0.00       0    99999.0
 144   21:00   73.7    24    6.7   184     15.3    959     0.00       0    99999.0
 144   22:00   71.2    26    8.0   188     17.2    960     0.00       0    99999.0
 144   23:00   69.6    28    7.7   182     17.0    960     0.00       0    99999.0
 145    0:00   67.6    32    3.1   170     13.1    960     0.00       0    99999.0
 145    1:00   66.0    37    3.7   161     13.7    961     0.00       0    99999.0
 145    2:00   64.1    40    2.9   177     10.2    961     0.00       0    99999.0
 145    3:00   62.7    44    1.9   163      9.5    961     0.00       0    99999.0
 145    4:00   62.2    44    1.9   160      9.6    961     0.00       0    99999.0
 145    5:00   61.2    46    2.7   162      9.1    961     0.00       7    99999.0
 145    6:00   62.2    45    3.8   164     12.3    962     0.00      99    99999.0
 145    7:00   65.2    40    2.2   161      9.2    962     0.00     318    99999.0

Return to Shoshone, California graphs page.


Western Regional Climate Center,wrcc@dri.edu